Aérodrome :
LOGIN :

S'inscrire | Disclaimer

   EN    FR    IT 

 










Légende :    VFR   VFR Marginal   IFR   IFR Intensif   IFR Très Intensif
Visi : 
Plafond : 
>= 8 km
>= 3000ft
5 à 8 km
1000 à 3000 ft
1500m à 5 km
500 à 1000 ft
800 à 1500m
200 à 500 ft
< 800m
< 200 ft
Symboles :   Orages  Brouillard  Fortes neiges  Fortes précipitations  Vent > 20 kt
SIGMETs :   Divers  Orages  Givrage  Turbulence  Onde Orograph.  Cendres Volcan.







- Altitude de l'aérodrome : 512 ft
- Code IATA : URO
- Voir les cartes d'approche


LFOP - Rouen Vallée de Seine

DERNIER METAR :
  • 192000Z AUTO 18015KT CAVOK 15/11 Q1005 TEMPO 18020G30KT 4000 RA BKN012

METARs EXPIRÉS :
  • 191930Z AUTO 18014KT CAVOK 16/11 Q1005 TEMPO 18020G30KT 4000 RA BKN012
  • 191900Z AUTO 17012KT 9999 FEW045 SCT066 16/11 Q1005 TEMPO 18020G30KT 4000 RA BKN012
  • 191830Z AUTO 17011KT 9999 SCT046 BKN054 BKN066 16/11 Q1006 TEMPO 18020G30KT 4000 RA BKN012
  • 191800Z AUTO 17010KT CAVOK 16/11 Q1006 TEMPO 18020G30KT 4000 RA BKN012
  • 191730Z AUTO 16009KT CAVOK 16/11 Q1006 TEMPO 18020G30KT 4000 RA BKN012

TAF TAF LFOP
Valide du 19 à 18h jusqu'au 20 à 18h UTC


191700Z 1918/2018 20015KT 9999 BKN040
TEMPO 1919/2002 18020G30KT 4000 RA BKN012
TEMPO 2002/2015 22015G25KT
ATIS : +33 2 35 80 80 34
Météo : +33 2 32 86 52 80
Pas de NOTAMs connus pour ce terrain.
1 SIGMET publié pour la FIR Paris (LFFF) :
 
Turbulence forte
LFFF SIGMET 1 VALID 191900/192300 LFPW
LFFF PARIS FIR/UIR SEV TURB FCST W OF LINE N4815 W00015 - N5015 E00030 SFC/FL060 MOV NE 30KT NC=



MET'MAP, la Météo Aéronautique d'un coup d'oeil ! - Copyright ORBIFLY Décembre 2007 - Disclaimer

ORBIFLY MET'MAP TEAM :

Programmation & Développement : Alexandra Zaïnal
Conception & Développement : Baudouin d'Aumeries
Co-Programmation & Développement : Marc-Olivier Méhu
Soutien technique & logistique : Manuel Goepfert

Contact : metmap@orbifly.com




SOURCES & CREDITS :

   NOAA